Time;durP1;ratioP1;P1;durP2;ratioP2;P2;SDS_P1;SDS_P2;PMS_P1;PMS_P2;Temp;Humidity;BMP_temperature;BMP_pressure;BME280_temperature;BME280_humidity;BME280_pressure;Samples;Min_cycle;Max_cycle;Signal;HPM_P1;HPM_P2
2021/06/03 00:00:39;;;;;;;11.38;6.55;;;16.40;83.20;;;;;;5067368;28;20050;-48
2021/06/03 00:03:10;;;;;;;12.13;6.20;;;16.40;83.10;;;;;;5069484;28;20028;-50
2021/06/03 00:05:47;;;;;;;8.75;5.60;;;16.40;83.20;;;;;;5067819;28;20490;-53
2021/06/03 00:08:16;;;;;;;13.23;5.82;;;16.40;83.30;;;;;;5064670;28;20039;-52
2021/06/03 00:10:50;;;;;;;20.52;7.07;;;16.40;83.20;;;;;;5069749;28;20442;-45
2021/06/03 00:13:22;;;;;;;14.25;7.72;;;16.40;83.20;;;;;;5072246;28;20143;-45
2021/06/03 00:15:50;;;;;;;11.55;6.43;;;16.50;83.30;;;;;;5068505;28;20384;-54
2021/06/03 00:18:18;;;;;;;12.05;6.15;;;16.50;83.20;;;;;;5069468;28;20433;-46
2021/06/03 00:20:45;;;;;;;12.38;6.05;;;16.50;83.20;;;;;;5071139;28;20141;-49
2021/06/03 00:23:13;;;;;;;8.88;6.35;;;16.50;83.10;;;;;;5072356;28;20390;-51
2021/06/03 00:25:40;;;;;;;13.82;6.85;;;16.50;83.20;;;;;;5071810;28;20036;-50
2021/06/03 00:28:08;;;;;;;13.45;6.35;;;16.50;83.20;;;;;;5068771;28;20028;-44
2021/06/03 00:30:35;;;;;;;10.88;6.18;;;16.50;83.20;;;;;;5072304;28;20450;-54
2021/06/03 00:33:03;;;;;;;11.27;5.78;;;16.50;83.20;;;;;;5072439;28;20055;-42
2021/06/03 00:35:31;;;;;;;11.77;6.43;;;16.50;83.40;;;;;;5071858;28;20527;-47
2021/06/03 00:37:59;;;;;;;12.05;6.20;;;16.50;83.40;;;;;;5065846;28;20430;-51
2021/06/03 00:40:27;;;;;;;11.23;5.75;;;16.50;83.40;;;;;;5071747;28;20059;-49
2021/06/03 00:42:54;;;;;;;12.05;5.75;;;16.50;84.10;;;;;;5066873;28;20029;-47
2021/06/03 00:45:29;;;;;;;11.73;5.72;;;16.50;83.50;;;;;;5069537;28;20017;-46
2021/06/03 00:47:57;;;;;;;11.70;6.43;;;16.50;83.50;;;;;;5064872;28;20435;-51
2021/06/03 00:50:35;;;;;;;10.35;5.57;;;16.50;83.60;;;;;;5067757;28;20089;-51
2021/06/03 00:53:05;;;;;;;10.55;7.07;;;16.50;83.60;;;;;;5071319;28;20442;-49
2021/06/03 00:55:34;;;;;;;9.43;6.28;;;16.50;83.50;;;;;;5074782;28;20108;-51
2021/06/03 00:58:02;;;;;;;9.00;5.55;;;16.50;83.70;;;;;;5068706;28;20074;-47
2021/06/03 01:00:30;;;;;;;11.63;6.15;;;16.50;83.70;;;;;;5069627;28;20100;-51
2021/06/03 01:02:58;;;;;;;9.77;5.25;;;16.50;83.70;;;;;;5067388;28;20104;-50
2021/06/03 01:05:36;;;;;;;9.60;6.47;;;16.50;83.70;;;;;;5071722;28;20423;-50
2021/06/03 01:08:09;;;;;;;11.18;5.78;;;16.50;83.70;;;;;;5065236;28;20024;-53
2021/06/03 01:10:51;;;;;;;9.68;5.38;;;16.50;83.60;;;;;;5071554;28;20027;-49
2021/06/03 01:13:52;;;;;;;12.15;6.13;;;16.50;84.20;;;;;;5070571;28;20438;-48
2021/06/03 01:16:22;;;;;;;8.55;6.03;;;16.50;84.30;;;;;;5065083;28;20032;-53
2021/06/03 01:18:51;;;;;;;11.00;5.70;;;16.40;84.30;;;;;;5069130;28;20538;-50
2021/06/03 01:21:32;;;;;;;11.75;5.75;;;16.50;84.30;;;;;;5070388;28;20035;-51
2021/06/03 01:24:23;;;;;;;9.10;5.68;;;16.50;84.50;;;;;;5070233;28;20108;-47
2021/06/03 01:26:53;;;;;;;11.00;6.07;;;16.50;84.30;;;;;;5066638;28;20041;-51
2021/06/03 01:29:22;;;;;;;10.63;5.82;;;16.50;84.40;;;;;;5071370;28;20432;-48
2021/06/03 01:31:51;;;;;;;11.98;6.55;;;16.50;84.20;;;;;;5071380;28;20063;-48
2021/06/03 01:34:21;;;;;;;11.77;6.40;;;16.50;84.70;;;;;;5069521;28;20090;-53
2021/06/03 01:36:51;;;;;;;14.35;6.85;;;16.50;84.70;;;;;;5067873;28;20024;-53
2021/06/03 01:39:18;;;;;;;11.10;6.32;;;16.50;84.30;;;;;;5071327;28;20025;-54
2021/06/03 01:41:46;;;;;;;7.97;4.93;;;16.50;84.20;;;;;;5069668;28;20115;-52
2021/06/03 01:44:15;;;;;;;8.55;5.13;;;16.60;84.20;;;;;;5071279;28;20443;-51
2021/06/03 01:46:42;;;;;;;11.95;5.57;;;16.60;84.10;;;;;;5066269;28;20020;-46
2021/06/03 01:49:10;;;;;;;7.88;5.30;;;16.50;84.20;;;;;;5070122;28;20020;-45
2021/06/03 01:51:37;;;;;;;9.82;5.80;;;16.50;84.30;;;;;;5067434;28;20025;-57
2021/06/03 01:54:05;;;;;;;11.65;6.20;;;16.50;84.40;;;;;;5070606;28;20459;-51
2021/06/03 01:56:35;;;;;;;11.55;6.13;;;16.60;84.50;;;;;;5068443;28;20032;-46
2021/06/03 01:59:02;;;;;;;12.20;5.53;;;16.60;84.50;;;;;;5070965;28;20199;-53
2021/06/03 02:01:30;;;;;;;10.75;5.93;;;16.50;84.50;;;;;;5070571;28;20019;-47
2021/06/03 02:03:58;;;;;;;7.72;5.32;;;16.50;84.50;;;;;;5070283;28;20035;-50
2021/06/03 02:06:26;;;;;;;11.07;5.75;;;16.50;84.70;;;;;;5068122;28;20119;-59
2021/06/03 02:08:53;;;;;;;10.57;5.63;;;16.50;84.60;;;;;;5070098;28;20024;-51
2021/06/03 02:11:23;;;;;;;9.63;5.35;;;16.50;84.70;;;;;;5069882;28;20527;-50
2021/06/03 02:13:58;;;;;;;13.35;5.18;;;16.50;84.60;;;;;;5070397;28;20029;-48
2021/06/03 02:16:37;;;;;;;9.93;5.55;;;16.50;84.80;;;;;;5066659;28;20082;-57
2021/06/03 02:19:08;;;;;;;14.18;5.55;;;16.50;84.90;;;;;;5070342;28;20101;-48
2021/06/03 02:21:38;;;;;;;12.57;5.97;;;16.50;84.80;;;;;;5070502;28;20021;-50
2021/06/03 02:24:10;;;;;;;9.00;5.70;;;16.50;84.90;;;;;;5070231;28;20521;-54
2021/06/03 02:26:39;;;;;;;9.90;5.93;;;16.50;84.90;;;;;;5064930;28;20166;-55
2021/06/03 02:29:07;;;;;;;11.38;5.65;;;16.50;85.00;;;;;;5070896;28;20554;-56
2021/06/03 02:31:36;;;;;;;12.40;5.13;;;16.50;85.10;;;;;;5070471;28;20080;-52
2021/06/03 02:34:05;;;;;;;10.55;5.20;;;16.50;85.20;;;;;;5069382;28;20540;-47
2021/06/03 02:36:33;;;;;;;10.65;5.45;;;16.50;85.20;;;;;;5066222;28;20037;-46
2021/06/03 02:39:01;;;;;;;9.25;5.32;;;16.50;85.20;;;;;;5070017;28;20368;-52
2021/06/03 02:41:29;;;;;;;10.77;5.68;;;16.50;85.20;;;;;;5069345;28;20090;-48
2021/06/03 02:43:57;;;;;;;8.43;5.18;;;16.50;85.20;;;;;;5070609;28;20024;-52
2021/06/03 02:46:25;;;;;;;10.63;5.70;;;16.50;85.20;;;;;;5062231;28;20515;-54
2021/06/03 02:48:52;;;;;;;9.35;5.50;;;16.50;85.20;;;;;;5069349;28;20025;-48
2021/06/03 02:51:20;;;;;;;7.13;4.65;;;16.50;85.40;;;;;;5068742;28;20125;-48
2021/06/03 02:53:48;;;;;;;10.35;5.78;;;16.50;85.30;;;;;;5069698;28;20068;-44
2021/06/03 02:56:17;;;;;;;10.55;5.28;;;16.50;85.40;;;;;;5069249;28;20020;-55
2021/06/03 02:58:46;;;;;;;9.55;5.15;;;16.50;85.40;;;;;;5068498;28;20032;-52
2021/06/03 03:01:14;;;;;;;9.68;6.00;;;16.50;85.40;;;;;;5069723;28;20016;-52
2021/06/03 03:03:41;;;;;;;9.55;5.53;;;16.50;86.10;;;;;;5069702;28;20037;-50
2021/06/03 03:06:10;;;;;;;11.20;5.70;;;16.50;85.70;;;;;;5067442;28;20070;-49
2021/06/03 03:08:38;;;;;;;11.55;5.65;;;16.50;85.60;;;;;;5068536;28;20066;-62
2021/06/03 03:11:05;;;;;;;7.55;5.28;;;16.50;85.60;;;;;;5069778;28;20020;-47
2021/06/03 03:13:35;;;;;;;8.43;5.13;;;16.50;85.80;;;;;;5069546;28;20064;-47
2021/06/03 03:16:02;;;;;;;11.65;7.13;;;16.50;86.10;;;;;;5065216;28;20097;-50
2021/06/03 03:18:31;;;;;;;18.70;9.73;;;16.50;85.90;;;;;;5065725;28;20048;-47
2021/06/03 03:20:59;;;;;;;24.67;12.05;;;16.50;85.90;;;;;;5069561;28;20024;-49
2021/06/03 03:23:26;;;;;;;23.77;14.40;;;16.50;86.00;;;;;;5068669;28;20094;-51
2021/06/03 03:25:53;;;;;;;32.10;16.95;;;16.50;85.90;;;;;;5068802;28;20077;-49
2021/06/03 03:28:21;;;;;;;33.58;15.85;;;16.50;86.00;;;;;;5065572;28;20025;-50
2021/06/03 03:30:49;;;;;;;31.35;16.70;;;16.60;85.90;;;;;;5068602;28;20017;-56
2021/06/03 03:33:17;;;;;;;34.33;17.58;;;16.60;85.80;;;;;;5068944;28;20499;-48
2021/06/03 03:35:46;;;;;;;32.92;17.88;;;16.60;86.10;;;;;;5069115;28;20115;-53
2021/06/03 03:38:15;;;;;;;35.88;19.17;;;16.60;85.80;;;;;;5066102;28;20029;-52
2021/06/03 03:40:42;;;;;;;35.08;20.15;;;16.60;86.00;;;;;;5068410;28;20067;-50
2021/06/03 03:43:10;;;;;;;37.78;19.27;;;16.70;85.70;;;;;;5069644;28;20021;-52
2021/06/03 03:45:37;;;;;;;35.20;19.92;;;16.70;85.90;;;;;;5066012;28;20024;-46
2021/06/03 03:48:05;;;;;;;41.15;20.23;;;16.70;85.70;;;;;;5069763;28;20158;-45
2021/06/03 03:50:35;;;;;;;42.25;21.63;;;16.70;85.60;;;;;;5073368;28;21108;-45
2021/06/03 03:53:04;;;;;;;44.78;22.60;;;16.70;85.50;;;;;;5073635;28;20121;-51
2021/06/03 03:55:32;;;;;;;44.85;22.92;;;16.70;85.80;;;;;;5072448;28;20398;-46
2021/06/03 03:58:02;;;;;;;36.95;20.15;;;16.70;85.60;;;;;;5069873;28;20032;-54
2021/06/03 04:00:33;;;;;;;41.92;21.08;;;16.70;85.60;;;;;;5071899;28;20020;-53
2021/06/03 04:03:02;;;;;;;34.63;21.05;;;16.70;85.90;;;;;;5072583;28;20040;-56
2021/06/03 04:05:30;;;;;;;42.50;23.38;;;16.70;85.60;;;;;;5072610;28;20028;-50
2021/06/03 04:07:57;;;;;;;45.95;23.88;;;16.60;85.50;;;;;;5067991;28;20108;-49
2021/06/03 04:10:25;;;;;;;47.20;23.05;;;16.60;85.60;;;;;;5072349;28;20383;-49
2021/06/03 04:12:52;;;;;;;41.17;22.50;;;16.60;85.70;;;;;;5072186;28;20062;-54
2021/06/03 04:15:21;;;;;;;44.25;22.83;;;16.60;85.70;;;;;;5072806;28;20029;-51
2021/06/03 04:17:48;;;;;;;35.90;22.92;;;16.60;85.80;;;;;;5069150;28;20422;-56
2021/06/03 04:20:24;;;;;;;42.05;22.52;;;16.60;85.80;;;;;;5071832;28;20024;-54
2021/06/03 04:22:52;;;;;;;43.58;22.95;;;16.60;86.00;;;;;;5072883;28;20102;-53
2021/06/03 04:25:20;;;;;;;42.45;22.15;;;16.60;85.90;;;;;;5072237;28;20062;-61
2021/06/03 04:27:47;;;;;;;50.17;24.02;;;16.60;85.90;;;;;;5068543;28;20031;-57
2021/06/03 04:30:19;;;;;;;40.63;23.08;;;16.60;85.80;;;;;;5072858;28;20424;-56
2021/06/03 04:32:46;;;;;;;46.97;22.60;;;16.60;85.80;;;;;;5069267;28;20138;-53
2021/06/03 04:35:15;;;;;;;43.80;23.27;;;16.60;85.90;;;;;;5071634;28;20028;-51
2021/06/03 04:37:44;;;;;;;38.55;22.33;;;16.60;86.10;;;;;;5064831;28;20070;-50
2021/06/03 04:40:13;;;;;;;39.42;22.13;;;16.60;85.90;;;;;;5067321;28;20442;-59
2021/06/03 04:42:41;;;;;;;35.53;20.98;;;16.50;85.90;;;;;;5071588;28;20021;-48
2021/06/03 04:45:12;;;;;;;44.67;22.60;;;16.60;86.30;;;;;;5070566;28;20037;-50
2021/06/03 04:47:41;;;;;;;38.55;21.63;;;16.50;86.00;;;;;;5068903;28;20032;-56
2021/06/03 04:50:10;;;;;;;38.90;20.98;;;16.50;85.90;;;;;;5070792;28;20042;-53
2021/06/03 04:52:38;;;;;;;37.60;20.92;;;16.50;86.20;;;;;;5071821;28;20028;-53
2021/06/03 04:55:09;;;;;;;38.83;21.27;;;16.50;86.10;;;;;;5072249;28;20038;-56
2021/06/03 04:57:38;;;;;;;34.58;19.15;;;16.50;86.20;;;;;;5067421;28;20024;-53
2021/06/03 05:00:11;;;;;;;35.15;20.13;;;16.50;86.20;;;;;;5071085;28;20133;-51
2021/06/03 05:02:39;;;;;;;32.35;20.95;;;16.50;86.30;;;;;;5071790;28;20040;-47
2021/06/03 05:05:08;;;;;;;39.95;21.02;;;16.50;85.90;;;;;;5071745;28;20056;-52
2021/06/03 05:07:36;;;;;;;37.45;21.80;;;16.50;85.90;;;;;;5066653;28;20124;-51
2021/06/03 05:10:05;;;;;;;36.90;20.48;;;16.50;86.30;;;;;;5072719;28;20056;-49
2021/06/03 05:12:34;;;;;;;35.83;19.02;;;16.50;86.30;;;;;;5070571;28;20422;-45
2021/06/03 05:15:06;;;;;;;42.42;22.73;;;16.50;86.40;;;;;;5071525;28;20067;-51
2021/06/03 05:17:35;;;;;;;47.13;26.97;;;16.50;86.60;;;;;;5068629;28;20368;-47
2021/06/03 05:20:05;;;;;;;42.83;26.80;;;16.50;86.50;;;;;;5072035;28;20496;-52
2021/06/03 05:22:33;;;;;;;41.88;25.27;;;16.50;87.00;;;;;;5069949;28;20024;-50
2021/06/03 05:25:00;;;;;;;37.58;25.85;;;16.50;86.60;;;;;;5072584;28;20024;-53
2021/06/03 05:27:28;;;;;;;41.08;25.75;;;16.50;86.70;;;;;;5068185;28;20035;-48
2021/06/03 05:29:55;;;;;;;47.45;30.50;;;16.50;87.10;;;;;;5071037;28;20033;-56
2021/06/03 05:32:23;;;;;;;43.03;31.63;;;16.50;86.90;;;;;;5070734;28;20046;-48
2021/06/03 05:34:50;;;;;;;41.50;28.20;;;16.50;86.80;;;;;;5070148;28;20032;-50
2021/06/03 05:37:22;;;;;;;40.58;29.30;;;16.50;86.80;;;;;;5064841;28;20112;-49
2021/06/03 05:39:49;;;;;;;44.38;31.20;;;16.50;86.90;;;;;;5070649;28;20379;-46
2021/06/03 05:42:17;;;;;;;43.60;31.77;;;16.50;86.90;;;;;;5070832;28;20039;-52
2021/06/03 05:44:46;;;;;;;46.00;32.50;;;16.50;86.70;;;;;;5069201;28;20021;-48
2021/06/03 05:47:15;;;;;;;47.40;33.97;;;16.60;86.80;;;;;;5065775;28;20024;-44
2021/06/03 05:49:42;;;;;;;41.80;32.25;;;16.60;86.50;;;;;;5070946;28;20089;-52
2021/06/03 05:52:10;;;;;;;48.42;33.83;;;16.60;86.70;;;;;;5071041;28;20025;-54
2021/06/03 05:54:38;;;;;;;42.55;34.15;;;16.60;86.50;;;;;;5071156;28;20035;-52
2021/06/03 05:57:05;;;;;;;45.20;34.33;;;16.60;86.40;;;;;;5066032;28;20497;-46
2021/06/03 05:59:33;;;;;;;44.88;34.28;;;16.70;86.40;;;;;;5070965;28;20028;-49
2021/06/03 06:02:04;;;;;;;45.58;34.85;;;16.60;86.60;;;;;;5069872;28;20024;-51
2021/06/03 06:06:59;;;;;;;44.38;36.25;;;16.70;86.50;;;;;;5066697;28;20029;-53
2021/06/03 06:09:27;;;;;;;46.90;35.60;;;16.70;87.20;;;;;;5071564;28;20467;-57
2021/06/03 06:11:54;;;;;;;44.95;34.90;;;16.70;86.40;;;;;;5069224;28;20052;-53
2021/06/03 06:14:21;;;;;;;43.95;32.10;;;16.70;86.90;;;;;;5072880;28;20460;-54
2021/06/03 06:17:13;;;;;;;45.03;33.45;;;16.70;86.30;;;;;;5072710;28;20387;-56
2021/06/03 06:19:59;;;;;;;40.17;30.37;;;16.70;86.30;;;;;;5072368;28;20029;-54
2021/06/03 06:22:26;;;;;;;37.47;29.35;;;16.70;86.20;;;;;;5071994;28;20259;-57
2021/06/03 06:24:55;;;;;;;37.65;29.42;;;16.60;86.50;;;;;;5071767;28;20478;-62
2021/06/03 06:27:23;;;;;;;38.08;29.00;;;16.70;86.60;;;;;;5071439;28;20021;-60
2021/06/03 06:29:53;;;;;;;34.88;27.40;;;16.70;86.50;;;;;;5072810;28;20033;-56
2021/06/03 06:32:21;;;;;;;33.67;25.65;;;16.60;86.40;;;;;;5072206;28;20447;-60
2021/06/03 06:34:48;;;;;;;39.30;25.65;;;16.60;86.40;;;;;;5071279;28;20036;-49
2021/06/03 06:37:16;;;;;;;33.67;24.42;;;16.70;86.50;;;;;;5072200;28;20040;-61
2021/06/03 06:39:43;;;;;;;29.80;24.52;;;16.70;87.20;;;;;;5071891;28;20034;-64
2021/06/03 06:42:13;;;;;;;32.92;25.05;;;16.70;86.70;;;;;;5072687;28;20024;-53
2021/06/03 06:44:41;;;;;;;33.17;24.05;;;16.70;86.60;;;;;;5072186;28;20028;-62
2021/06/03 06:47:09;;;;;;;29.75;22.13;;;16.70;86.70;;;;;;5072495;28;20115;-60
2021/06/03 06:49:36;;;;;;;31.73;22.40;;;16.70;86.80;;;;;;5072432;28;20028;-58
2021/06/03 06:52:04;;;;;;;30.08;23.63;;;16.70;86.80;;;;;;5072415;28;20024;-61
2021/06/03 06:54:35;;;;;;;29.88;21.35;;;16.70;87.40;;;;;;5072358;28;20063;-54
2021/06/03 06:57:03;;;;;;;31.05;18.17;;;16.30;90.50;;;;;;5072680;28;20466;-64
2021/06/03 06:59:30;;;;;;;28.48;20.40;;;16.10;92.10;;;;;;5072889;28;20069;-62
2021/06/03 07:01:57;;;;;;;26.90;19.67;;;16.00;92.10;;;;;;5070953;28;20429;-62
2021/06/03 07:04:25;;;;;;;31.45;19.48;;;15.80;92.70;;;;;;5072374;28;20383;-64
2021/06/03 07:06:52;;;;;;;46.40;40.78;;;15.90;92.40;;;;;;5071532;28;20024;-62
2021/06/03 07:09:20;;;;;;;49.90;41.45;;;15.90;92.70;;;;;;5072088;28;20107;-61
2021/06/03 07:11:47;;;;;;;30.13;20.40;;;15.70;93.10;;;;;;5070520;28;20041;-50
2021/06/03 07:14:14;;;;;;;27.50;15.80;;;15.70;93.90;;;;;;5071906;28;20165;-63
2021/06/03 07:16:42;;;;;;;37.50;14.75;;;15.60;94.30;;;;;;5071435;28;20128;-55
2021/06/03 07:19:09;;;;;;;26.85;16.27;;;15.60;94.50;;;;;;5070862;28;20050;-47
2021/06/03 07:21:37;;;;;;;31.42;26.55;;;15.60;94.00;;;;;;5069102;28;20031;-55
2021/06/03 07:24:07;;;;;;;24.73;18.20;;;15.70;92.30;;;;;;5069312;28;20518;-66
2021/06/03 07:26:34;;;;;;;34.28;30.55;;;15.60;94.30;;;;;;5068820;28;20063;-58
2021/06/03 07:29:05;;;;;;;34.88;29.38;;;15.90;91.80;;;;;;5070867;28;20098;-52
2021/06/03 07:31:34;;;;;;;44.92;40.10;;;15.70;93.80;;;;;;5071034;28;20020;-58
2021/06/03 07:34:06;;;;;;;24.10;16.40;;;15.90;92.60;;;;;;5070612;28;20059;-62
2021/06/03 07:36:34;;;;;;;39.30;30.17;;;15.90;93.70;;;;;;5071041;28;20509;-64
2021/06/03 07:39:07;;;;;;;30.27;22.65;;;15.90;92.40;;;;;;5071392;28;20412;-61
2021/06/03 07:41:34;;;;;;;;;;;15.90;93.10;;;;;;5070825;28;20025;-62
2021/06/03 07:44:03;;;;;;;30.73;21.13;;;15.70;94.70;;;;;;5071887;28;20355;-63
2021/06/03 07:46:30;;;;;;;39.63;32.50;;;15.70;94.60;;;;;;5071422;28;20029;-59
2021/06/03 07:48:58;;;;;;;31.58;23.00;;;15.70;93.30;;;;;;5071154;28;20431;-59
2021/06/03 07:51:25;;;;;;;38.20;28.50;;;15.70;94.50;;;;;;5071572;28;20024;-54
2021/06/03 07:53:53;;;;;;;27.23;23.40;;;15.80;93.70;;;;;;5071573;28;20076;-57
2021/06/03 07:56:20;;;;;;;27.05;17.77;;;15.90;93.30;;;;;;5071699;28;20047;-61
2021/06/03 07:58:48;;;;;;;28.23;14.93;;;16.00;93.40;;;;;;5071164;28;20483;-60
2021/06/03 08:01:15;;;;;;;28.50;23.52;;;15.80;94.30;;;;;;5071547;28;20080;-65
2021/06/03 08:03:42;;;;;;;26.90;14.52;;;15.80;94.30;;;;;;5071927;28;20097;-56
2021/06/03 08:06:10;;;;;;;24.02;17.33;;;15.60;94.80;;;;;;5071438;28;20139;-53
2021/06/03 08:08:38;;;;;;;25.15;21.80;;;15.70;94.40;;;;;;5071249;28;20469;-64
2021/06/03 08:11:07;;;;;;;26.25;14.48;;;15.80;93.40;;;;;;5071068;28;20031;-65
2021/06/03 08:13:35;;;;;;;28.13;15.02;;;15.70;94.70;;;;;;5070634;28;20448;-62
2021/06/03 08:16:03;;;;;;;25.58;17.67;;;15.70;94.80;;;;;;5070288;28;20031;-59
2021/06/03 08:18:31;;;;;;;22.17;17.67;;;15.50;95.20;;;;;;5071369;28;20027;-58
2021/06/03 08:21:01;;;;;;;24.75;15.32;;;15.70;94.40;;;;;;5071427;28;20037;-57
2021/06/03 08:23:29;;;;;;;25.90;17.25;;;15.50;95.20;;;;;;5071380;28;20062;-56
2021/06/03 08:25:57;;;;;;;49.03;35.03;;;15.60;94.80;;;;;;5064288;28;20036;-52
2021/06/03 08:28:25;;;;;;;30.40;22.80;;;15.70;94.60;;;;;;5069652;28;20054;-50
2021/06/03 08:30:56;;;;;;;26.77;17.45;;;15.70;94.50;;;;;;5066448;28;20024;-49
2021/06/03 08:33:23;;;;;;;38.65;25.48;;;15.60;94.80;;;;;;5069282;28;20037;-50
2021/06/03 08:35:51;;;;;;;35.65;22.75;;;15.90;95.30;;;;;;5070909;28;20134;-51
2021/06/03 08:38:19;;;;;;;40.35;33.45;;;16.20;94.30;;;;;;5071162;28;20115;-55
2021/06/03 08:40:56;;;;;;;27.05;18.95;;;16.30;93.60;;;;;;5070889;28;20035;-51
2021/06/03 08:43:26;;;;;;;28.85;22.15;;;16.40;93.40;;;;;;5066198;28;20033;-51
2021/06/03 08:45:55;;;;;;;29.30;22.73;;;16.40;93.40;;;;;;5068350;28;20028;-55
2021/06/03 08:48:23;;;;;;;26.90;19.98;;;16.30;93.80;;;;;;5071297;28;20062;-53
2021/06/03 08:50:59;;;;;;;32.45;26.02;;;16.30;93.40;;;;;;5070659;28;20395;-51
2021/06/03 08:53:27;;;;;;;39.33;34.35;;;16.40;94.10;;;;;;5068191;28;20036;-59
2021/06/03 08:58:42;;;;;;;47.13;30.17;;;16.60;93.30;;;;;;5070040;28;20028;-53
2021/06/03 09:01:10;;;;;;;33.22;25.52;;;16.70;93.20;;;;;;5070863;28;20110;-55
2021/06/03 09:03:37;;;;;;;38.28;24.92;;;16.70;93.40;;;;;;5068594;28;20040;-58
2021/06/03 09:06:06;;;;;;;34.25;23.13;;;16.80;93.40;;;;;;5070285;28;20020;-57
2021/06/03 09:08:37;;;;;;;41.22;32.25;;;16.80;93.50;;;;;;5071644;28;20024;-59
2021/06/03 09:11:10;;;;;;;39.85;30.65;;;16.80;94.00;;;;;;5071865;28;20518;-59
2021/06/03 09:13:42;;;;;;;34.97;27.30;;;16.80;94.10;;;;;;5068131;28;20406;-53
2021/06/03 09:16:09;;;;;;;;;;;16.80;94.20;;;;;;5071726;28;20028;-56
2021/06/03 09:18:42;;;;;;;35.38;24.90;;;16.60;94.30;;;;;;5071644;28;19931;-55
2021/06/03 09:21:20;;;;;;;36.80;24.17;;;16.50;94.70;;;;;;5072748;28;20024;-56
2021/06/03 09:23:59;;;;;;;35.72;24.38;;;16.60;95.00;;;;;;5067716;28;20052;-57
2021/06/03 09:26:29;;;;;;;32.35;22.95;;;16.50;95.00;;;;;;5070857;28;20415;-54
2021/06/03 09:28:58;;;;;;;34.33;20.92;;;16.60;95.60;;;;;;5071533;28;20017;-58
2021/06/03 09:31:34;;;;;;;33.60;20.40;;;16.60;95.20;;;;;;5071022;28;20372;-56
2021/06/03 09:34:07;;;;;;;27.63;18.58;;;16.70;95.50;;;;;;5064565;28;20495;-54
2021/06/03 09:36:50;;;;;;;30.75;18.08;;;16.70;95.80;;;;;;5070617;28;20027;-44
2021/06/03 09:39:47;;;;;;;25.25;17.80;;;16.80;95.70;;;;;;5069490;28;20020;-56
2021/06/03 09:42:21;;;;;;;26.52;17.38;;;16.90;95.50;;;;;;5067436;28;20118;-54
2021/06/03 09:44:55;;;;;;;24.20;15.70;;;16.90;95.10;;;;;;5065682;28;20052;-43
2021/06/03 09:47:25;;;;;;;25.52;15.85;;;16.90;94.60;;;;;;5067522;28;20380;-49
2021/06/03 09:49:58;;;;;;;24.20;15.02;;;16.90;94.50;;;;;;5069324;28;20021;-51
2021/06/03 09:52:34;;;;;;;26.85;15.40;;;16.90;94.40;;;;;;5067454;28;20026;-54
2021/06/03 09:55:10;;;;;;;25.05;15.48;;;16.80;94.20;;;;;;5067428;28;20082;-50
2021/06/03 09:57:40;;;;;;;26.23;15.18;;;16.90;94.00;;;;;;5068515;28;20050;-56
2021/06/03 10:00:11;;;;;;;21.48;14.05;;;16.80;94.30;;;;;;5071609;28;20108;-46
2021/06/03 10:02:39;;;;;;;28.80;13.98;;;16.90;93.90;;;;;;5070797;28;20174;-44
2021/06/03 10:05:14;;;;;;;19.20;11.85;;;16.80;93.90;;;;;;5067970;28;20031;-48
2021/06/03 10:07:55;;;;;;;16.90;12.40;;;16.80;94.10;;;;;;5070687;28;20021;-51
2021/06/03 10:10:23;;;;;;;18.83;12.73;;;16.80;93.80;;;;;;5070871;28;20021;-46
2021/06/03 10:12:52;;;;;;;20.00;12.55;;;16.80;94.00;;;;;;5070751;28;20044;-52
2021/06/03 10:15:25;;;;;;;19.92;12.25;;;16.80;94.00;;;;;;5066813;28;20032;-50
2021/06/03 10:18:00;;;;;;;69.45;53.33;;;16.80;94.10;;;;;;5070706;28;20071;-54
2021/06/03 10:20:48;;;;;;;49.75;38.65;;;16.80;94.10;;;;;;5070124;28;20157;-46
2021/06/03 10:23:20;;;;;;;39.47;33.55;;;16.80;94.20;;;;;;5064850;28;20031;-41
2021/06/03 10:25:56;;;;;;;40.97;36.50;;;16.80;94.30;;;;;;5070667;28;20036;-45
2021/06/03 10:28:24;;;;;;;38.03;30.23;;;16.70;94.30;;;;;;5070645;28;20028;-51
2021/06/03 10:30:54;;;;;;;36.80;32.80;;;16.80;94.40;;;;;;5070752;28;20032;-54
2021/06/03 10:33:28;;;;;;;39.65;30.40;;;16.70;94.20;;;;;;5066854;28;20040;-47
2021/06/03 10:35:59;;;;;;;29.50;21.17;;;16.70;94.10;;;;;;5069768;28;20113;-50
2021/06/03 10:38:26;;;;;;;32.15;26.80;;;16.70;94.20;;;;;;5069741;28;20032;-53
2021/06/03 10:41:00;;;;;;;35.95;27.23;;;16.80;94.60;;;;;;5069808;28;20032;-53
2021/06/03 10:43:36;;;;;;;30.83;21.50;;;16.80;94.60;;;;;;5066691;28;20032;-49
2021/06/03 10:46:04;;;;;;;36.55;23.00;;;16.80;94.30;;;;;;5069382;28;20028;-44
2021/06/03 10:48:32;;;;;;;48.63;27.20;;;16.80;94.10;;;;;;5069332;28;20483;-53
2021/06/03 10:51:03;;;;;;;58.08;32.10;;;16.80;93.90;;;;;;5070469;28;20040;-49
2021/06/03 10:53:31;;;;;;;74.45;37.05;;;16.80;93.90;;;;;;5066537;28;20123;-48
2021/06/03 10:56:08;;;;;;;68.43;37.78;;;16.80;93.70;;;;;;5068913;28;20352;-51
2021/06/03 10:58:39;;;;;;;74.50;42.17;;;16.80;93.60;;;;;;5066498;28;20035;-48
2021/06/03 11:01:08;;;;;;;77.50;43.38;;;16.80;93.60;;;;;;5064548;28;20090;-55
2021/06/03 11:03:50;;;;;;;77.97;40.80;;;16.80;93.50;;;;;;5065891;28;20166;-57
2021/06/03 11:06:21;;;;;;;69.60;37.23;;;16.80;93.50;;;;;;5068232;28;20024;-46
2021/06/03 11:08:55;;;;;;;68.18;38.33;;;16.80;93.40;;;;;;5069252;28;20031;-55
2021/06/03 11:11:25;;;;;;;83.68;41.35;;;16.90;93.30;;;;;;5069721;28;20047;-47
2021/06/03 11:13:52;;;;;;;79.68;41.78;;;16.90;93.10;;;;;;5066254;28;20133;-49
2021/06/03 11:16:27;;;;;;;72.95;40.45;;;16.90;93.00;;;;;;5070351;28;20101;-46
2021/06/03 11:18:56;;;;;;;74.38;39.13;;;16.80;92.90;;;;;;5068477;28;20056;-49
2021/06/03 11:21:35;;;;;;;69.07;38.67;;;16.90;92.90;;;;;;5070702;28;20099;-53
2021/06/03 11:24:10;;;;;;;67.25;37.67;;;16.90;92.80;;;;;;5065603;28;20844;-50
2021/06/03 11:26:44;;;;;;;63.45;35.90;;;16.80;92.70;;;;;;5066039;28;20119;-50
2021/06/03 11:29:16;;;;;;;64.38;37.90;;;16.80;92.50;;;;;;5067054;28;20078;-45
2021/06/03 11:32:07;;;;;;;71.05;38.17;;;16.90;92.60;;;;;;5069883;28;20523;-48
2021/06/03 11:34:40;;;;;;;63.08;36.30;;;16.80;92.50;;;;;;5065191;28;20097;-45
2021/06/03 11:37:22;;;;;;;60.30;35.20;;;16.80;92.50;;;;;;5069857;28;20036;-46
2021/06/03 11:40:10;;;;;;;66.82;33.88;;;16.90;92.40;;;;;;5067133;28;20425;-54
2021/06/03 11:42:56;;;;;;;63.38;35.42;;;16.80;92.30;;;;;;5069038;28;20066;-54
2021/06/03 11:45:31;;;;;;;58.85;34.25;;;16.80;92.20;;;;;;5066958;28;20120;-50
2021/06/03 11:48:06;;;;;;;56.17;33.20;;;16.80;92.10;;;;;;5069383;28;20023;-51
2021/06/03 11:50:35;;;;;;;55.00;32.28;;;16.80;92.10;;;;;;5071681;28;20082;-49
2021/06/03 11:53:03;;;;;;;56.05;33.00;;;16.80;92.00;;;;;;5067182;28;20025;-48
2021/06/03 11:55:34;;;;;;;51.83;31.80;;;16.80;91.90;;;;;;5069590;28;20383;-48
2021/06/03 11:58:18;;;;;;;58.47;32.03;;;16.80;91.90;;;;;;5068033;28;20025;-45
2021/06/03 12:00:48;;;;;;;50.97;31.55;;;16.80;91.90;;;;;;5067879;28;20070;-51
2021/06/03 12:03:32;;;;;;;47.20;30.05;;;16.80;91.80;;;;;;5069923;28;20443;-47
2021/06/03 12:06:14;;;;;;;56.63;32.05;;;16.80;91.80;;;;;;5067405;28;20016;-46
2021/06/03 12:08:47;;;;;;;54.08;31.48;;;16.80;91.70;;;;;;5069635;28;20073;-48
2021/06/03 12:11:17;;;;;;;46.38;28.95;;;16.80;91.70;;;;;;5074796;28;20560;-45
2021/06/03 12:13:46;;;;;;;47.67;29.52;;;16.80;91.60;;;;;;5073030;28;20170;-43
2021/06/03 12:16:14;;;;;;;54.58;30.20;;;16.80;91.60;;;;;;5073384;28;20386;-52
2021/06/03 12:18:45;;;;;;;52.22;29.08;;;16.80;91.50;;;;;;5069724;28;20067;-47
2021/06/03 12:21:14;;;;;;;49.75;29.20;;;16.80;91.50;;;;;;5073197;28;20124;-47
2021/06/03 12:23:50;;;;;;;50.10;28.60;;;16.80;91.40;;;;;;5072949;28;20475;-51
2021/06/03 12:26:24;;;;;;;45.88;27.42;;;16.80;91.40;;;;;;5075111;28;20029;-61
2021/06/03 12:28:51;;;;;;;48.15;27.42;;;16.70;91.30;;;;;;5072265;28;20116;-54
2021/06/03 12:31:29;;;;;;;51.22;28.63;;;16.70;91.40;;;;;;5075605;28;20028;-62
2021/06/03 12:33:58;;;;;;;47.42;26.58;;;16.70;91.30;;;;;;5075121;28;20036;-59
2021/06/03 12:36:26;;;;;;;46.13;26.73;;;16.70;91.30;;;;;;5075386;28;20044;-59
2021/06/03 12:38:58;;;;;;;45.35;26.10;;;16.70;91.30;;;;;;5075445;28;20032;-59
2021/06/03 12:41:36;;;;;;;44.08;26.60;;;16.70;91.30;;;;;;5075605;28;20309;-56
2021/06/03 12:44:18;;;;;;;41.83;26.92;;;16.70;91.30;;;;;;5075332;28;20029;-62
2021/06/03 12:46:53;;;;;;;45.58;25.23;;;16.70;91.30;;;;;;5075760;28;20025;-58
2021/06/03 12:49:24;;;;;;;47.03;25.48;;;16.70;91.30;;;;;;5075463;28;20029;-62
2021/06/03 12:51:56;;;;;;;39.42;24.15;;;16.70;91.20;;;;;;5074689;28;20059;-64